JP-0072 weather

Taoka Hospital Helipad (rooftop)
Tokushima, Tokushima Prefecture, Japan

Public forecast

Using degrees Celsius for public forecast. Weather courtesy of forecast.io.

Closest aviation weather report (METAR) to Taoka Hospital Helipad (rooftop)

Closest report is Tokushima Airport/JMSDF Air Base, 4.6 nm (8.5 km) NNE. Retrieved 2019/10/19 10:00 UTC (47 minutes ago):

RJOS 191000Z 31009KT 9999 FEW025 BKN050 BKN080 23/19 Q1015

Closest aviation forecast (TAF) to Taoka Hospital Helipad (rooftop)

Closest forecast is Takamatsu Airport, 28.6 nm (53.0 km) WNW. Retrieved 2019/10/19 06:30 UTC (4 hours ago):

TAF TAF RJOT 190506Z 1906/2012 27007KT 8000 -SHRA FEW008 SCT015 BKN020 TEMPO 1906/1907 3000 -SHRA BR FEW003 BKN005 BKN015 TEMPO 1907/1910 4000 -SHRA BR FEW005 BKN008 BKN015 BECMG 1921/2000 06006KT